Itara — EA4760 — position and weather

sailwx.info

Track history (hours):
 
Tides and Currents Weather Stations Pressure Air Temp Water Temp Dewpoint Dewpoint Depression Visibility Wind Speed Wind Dir Waves Ship Positions

Itara

Last reported at 2017-Nov-24 04:45 UTC. Time now 2017-Nov-24 05:43 UTC.
Position N 28°09' W 015°25'.

Length 18 m.

Type: Port tender. MMSI: 224016190.

Date/timePositionNaut miles runAvg speedWind from/ knotsBaromVisibWave heightAir tempDewpointWater temp
2017-Nov-24 04:45N 28°09' W 015°25'1 5.5
2017-Nov-24 04:30N 28°08' W 015°25'4 7.6
2017-Nov-24 04:00N 28°08' W 015°20'1 1.6
2017-Nov-24 03:30N 28°07' W 015°20'3 6.9
2017-Nov-24 03:00N 28°06' W 015°23'0 0.7
2017-Nov-24 02:30N 28°06' W 015°23'3 6.5
2017-Nov-24 02:00N 28°09' W 015°25'0 0.4
2017-Nov-24 01:29N 28°09' W 015°25'0 0.0
2017-Nov-24 00:59N 28°09' W 015°25'0 0.0
2017-Nov-24 00:29N 28°09' W 015°25'0 0.0
2017-Nov-23 23:59N 28°09' W 015°25'0 0.0
2017-Nov-23 23:29N 28°09' W 015°25'3 5.3
2017-Nov-23 22:59N 28°07' W 015°24'1 1.7
2017-Nov-23 22:30N 28°07' W 015°24'1 2.3
2017-Nov-23 21:58N 28°08' W 015°24'3 5.4
2017-Nov-23 21:26N 28°06' W 015°23'2 4.1
2017-Nov-23 20:56N 28°07' W 015°24'2 3.1
2017-Nov-23 20:26N 28°09' W 015°23'2 3.3
2017-Nov-23 19:57N 28°07' W 015°24'2 5.1
2017-Nov-23 19:30N 28°05' W 015°23'3 5.3
2017-Nov-23 19:00N 28°08' W 015°25'1 2.4
2017-Nov-23 18:28N 28°09' W 015°25'0 0.0
2017-Nov-23 17:58N 28°09' W 015°25'4 7.8
2017-Nov-23 17:28N 28°05' W 015°23'1 3.2
2017-Nov-23 17:00N 28°04' W 015°22'2 3.2
2017-Nov-23 16:26N 28°06' W 015°23'4 7.1
2017-Nov-23 15:55N 28°08' W 015°20'2 4.0
2017-Nov-23 15:25N 28°08' W 015°22'3 7.2
2017-Nov-23 15:00N 28°08' W 015°25'1 1.2
2017-Nov-23 14:10N 28°09' W 015°25'1 3.7
2017-Nov-23 13:58N 28°08' W 015°25'3 4.1
2017-Nov-23 13:20N 28°06' W 015°24'0 0.1
2017-Nov-23 13:01N 28°06' W 015°24'2 3.0
2017-Nov-23 12:27N 28°07' W 015°24'2 4.4
2017-Nov-23 12:00N 28°05' W 015°24'4 7.3
2017-Nov-23 11:29N 28°09' W 015°25'1 2.3
2017-Nov-23 10:55N 28°08' W 015°25'0 0.1
2017-Nov-23 10:30N 28°08' W 015°25'0 0.8
2017-Nov-23 09:59N 28°07' W 015°25'4 7.5
2017-Nov-23 09:29N 28°04' W 015°22'2 3.9
2017-Nov-23 08:58N 28°06' W 015°24'2 4.2
2017-Nov-23 08:27N 28°08' W 015°25'1 2.6
2017-Nov-23 07:57N 28°09' W 015°25'0 0.2
2017-Nov-23 07:26N 28°09' W 015°25'1 2.3
2017-Nov-23 06:56N 28°08' W 015°24'1 1.9
2017-Nov-23 06:30N 28°08' W 015°24'4 7.4
2017-Nov-23 05:59N 28°04' W 015°22'3 5.9
2017-Nov-23 05:29N 28°07' W 015°24'  
2017-Nov-19 20:55N 28°09' W 015°25'2 4.6
2017-Nov-19 20:28N 28°07' W 015°24'1 1.5
2017-Nov-19 19:47N 28°06' W 015°24'0 0.0
2017-Nov-19 19:30N 28°06' W 015°24'0 0.0
2017-Nov-19 18:53N 28°06' W 015°24'0 0.1
2017-Nov-19 18:30N 28°06' W 015°24'0 0.0
2017-Nov-19 18:00N 28°06' W 015°24'1 2.3
2017-Nov-19 17:30N 28°07' W 015°25'2 3.0
2017-Nov-19 16:51N 28°09' W 015°25'0 0.0
2017-Nov-19 16:21N 28°09' W 015°25'2 6.8
2017-Nov-19 16:00N 28°07' W 015°24'0 0.8
2017-Nov-19 15:28N 28°06' W 015°24'3 6.1
2017-Nov-19 14:57N 28°08' W 015°22'3 4.8
2017-Nov-19 14:16N 28°11' W 015°19'2 4.7
2017-Nov-19 13:56N 28°10' W 015°21'4 7.5
2017-Nov-19 13:25N 28°07' W 015°24'2 4.1
2017-Nov-19 12:56N 28°09' W 015°25'0 0.0
2017-Nov-19 12:23N 28°09' W 015°25'0 0.0
2017-Nov-19 11:56N 28°09' W 015°25'0 0.0
2017-Nov-18 19:29N 28°09' W 015°25'1 2.4
2017-Nov-18 19:00N 28°09' W 015°24'1 2.6
2017-Nov-18 18:30N 28°08' W 015°25'1 2.3
2017-Nov-18 18:00N 28°09' W 015°25'0 0.0
2017-Nov-18 17:30N 28°09' W 015°25'0 0.0
2017-Nov-18 17:00N 28°09' W 015°25'3 5.2
2017-Nov-18 16:26N 28°08' W 015°22'1 1.1
2017-Nov-18 15:55N 28°08' W 015°22'3 6.4
2017-Nov-18 15:25N 28°08' W 015°25'0 0.6
2017-Nov-18 14:46N 28°09' W 015°25'0 0.0
2017-Nov-18 14:28N 28°09' W 015°25'0 0.0
2017-Nov-18 13:58N 28°09' W 015°25'0 0.0
2017-Nov-18 13:19N 28°09' W 015°25'0 0.0
2017-Nov-18 12:58N 28°09' W 015°25'3 5.1
2017-Nov-18 12:26N 28°06' W 015°24'1 0.9
2017-Nov-18 11:51N 28°06' W 015°24'2 4.3
2017-Nov-18 11:25N 28°08' W 015°24'0 0.4
2017-Nov-18 10:57N 28°08' W 015°24'0 0.5
2017-Nov-18 10:30N 28°07' W 015°24'1 2.5
2017-Nov-18 10:00N 28°08' W 015°24'1 2.6
2017-Nov-18 09:30N 28°08' W 015°25'1 1.9
2017-Nov-18 09:00N 28°08' W 015°24'1 1.3
2017-Nov-18 08:27N 28°09' W 015°24'1 1.8
2017-Nov-18 07:57N 28°08' W 015°24'2 0.1
2017-Nov-17 07:51N 28°09' W 015°25'1 2.3
2017-Nov-17 07:26N 28°08' W 015°25'1 2.3
2017-Nov-17 07:00N 28°09' W 015°25'4 8.3
2017-Nov-17 06:30N 28°05' W 015°23'1 1.3
2017-Nov-17 06:00N 28°06' W 015°24'4 6.7
2017-Nov-17 05:28N 28°09' W 015°25'0 0.0
2017-Nov-16 23:18N 28°09' W 015°25'0 0.0
2017-Nov-16 22:51N 28°09' W 015°25'0 0.0
2017-Nov-16 22:21N 28°09' W 015°25'1 3.9
2017-Nov-16 21:59N 28°07' W 015°25'2 4.7
2017-Nov-16 21:28N 28°07' W 015°22'1 1.5
2017-Nov-16 20:59N 28°08' W 015°22'3 5.9
2017-Nov-16 20:30N 28°08' W 015°25'1 1.2
2017-Nov-16 19:41N 28°09' W 015°25'1 4.3
2017-Nov-16 19:27N 28°08' W 015°25'0 0.5
2017-Nov-16 18:57N 28°08' W 015°25'1 1.0
2017-Nov-16 18:15N 28°09' W 015°25'0 1.3
2017-Nov-16 18:00N 28°08' W 015°25'4 7.1
2017-Nov-16 17:30N 28°05' W 015°24'2 3.6
2017-Nov-16 16:59N 28°04' W 015°22'3 5.5
2017-Nov-16 16:29N 28°06' W 015°24'1 2.4
2017-Nov-16 15:55N 28°07' W 015°25'0 0.2
2017-Nov-16 15:24N 28°07' W 015°25'0 0.3
2017-Nov-16 15:00N 28°08' W 015°25'1 2.0
2017-Nov-16 14:30N 28°08' W 015°25'3 5.6
2017-Nov-16 14:00N 28°06' W 015°24'0 0.5
2017-Nov-16 13:26N 28°06' W 015°24'3 4.9
2017-Nov-16 12:51N 28°09' W 015°25'0 0.0
2017-Nov-16 12:21N 28°09' W 015°25'0 0.0
2017-Nov-16 11:51N 28°09' W 015°25'0 0.0
2017-Nov-16 11:30N 28°09' W 015°25'0 0.0
2017-Nov-16 11:00N 28°09' W 015°25'0 0.5
2017-Nov-16 10:30N 28°09' W 015°25'4 7.2
2017-Nov-16 10:00N 28°05' W 015°24'4 7.5
2017-Nov-16 09:30N 28°09' W 015°25'0 0.2
2017-Nov-16 09:00N 28°09' W 015°25'0 0.0
2017-Nov-16 08:30N 28°09' W 015°25'0 0.0
2017-Nov-16 08:00N 28°09' W 015°25'0 0.0
2017-Nov-16 07:30N 28°09' W 015°25'0 0.0
2017-Nov-16 07:00N 28°09' W 015°25'4 8.1
2017-Nov-16 06:30N 28°05' W 015°23'1 1.3
2017-Nov-16 06:00N 28°05' W 015°23'4 8.1
2017-Nov-16 05:30N 28°08' W 015°25'1 0.1
2017-Nov-15 21:41N 28°09' W 015°25'1 4.4
2017-Nov-15 21:27N 28°08' W 015°25'4 8.3
2017-Nov-15 20:56N 28°04' W 015°23'2 4.1
2017-Nov-15 20:30N 28°05' W 015°24'4 7.1
2017-Nov-15 20:00N 28°08' W 015°25'0 0.6
2017-Nov-15 19:19N 28°09' W 015°25'0 1.2
2017-Nov-15 18:56N 28°08' W 015°25'3 7.3
2017-Nov-15 18:28N 28°05' W 015°24'2 3.7
2017-Nov-15 18:00N 28°04' W 015°22'4 7.6
2017-Nov-15 17:30N 28°07' W 015°25'2 3.0
2017-Nov-15 16:55N 28°09' W 015°25'0 0.0
2017-Nov-15 16:26N 28°09' W 015°25'0 0.0
2017-Nov-15 15:55N 28°09' W 015°25'0 0.0
2017-Nov-15 15:25N 28°09' W 015°25'0 0.0
2017-Nov-15 14:56N 28°09' W 015°25'0 0.0
2017-Nov-15 14:29N 28°09' W 015°25'0 0.0
2017-Nov-15 13:59N 28°09' W 015°25'0 0.0
2017-Nov-15 13:29N 28°09' W 015°25'0 0.0
2017-Nov-15 12:59N 28°09' W 015°25'2 5.2
2017-Nov-15 12:30N 28°06' W 015°24'0 0.9
2017-Nov-15 12:00N 28°06' W 015°24'3 5.4
2017-Nov-15 11:28N 28°09' W 015°25'0 0.0
2017-Nov-15 10:58N 28°09' W 015°25'3 5.9
2017-Nov-15 10:31N 28°06' W 015°24'1 2.6
2017-Nov-15 10:00N 28°05' W 015°24'4 7.1
2017-Nov-15 09:30N 28°08' W 015°25'0 0.4
2017-Nov-15 08:57N 28°08' W 015°25'4 7.2
2017-Nov-15 08:26N 28°05' W 015°23'1 2.2
2017-Nov-15 08:00N 28°04' W 015°23'3 6.3
2017-Nov-15 07:30N 28°07' W 015°25'2 2.8
2017-Nov-15 06:49N 28°09' W 015°25'3 8.1
2017-Nov-15 06:29N 28°06' W 015°24'3 6.0
2017-Nov-15 06:00N 28°04' W 015°22'4 8.4
2017-Nov-15 05:30N 28°07' W 015°25'1 0.7
2017-Nov-15 03:26N 28°09' W 015°25'2 4.8
2017-Nov-15 02:58N 28°07' W 015°24'1 1.3
2017-Nov-15 02:25N 28°07' W 015°25'2 2.8
2017-Nov-15 01:51N 28°09' W 015°25'0 0.0
2017-Nov-15 01:21N 28°09' W 015°25'0 0.0
2017-Nov-15 00:54N 28°09' W 015°25'1 3.6
2017-Nov-15 00:30N 28°07' W 015°25'0 0.1
2017-Nov-14 23:58N 28°07' W 015°25'0 0.0
2017-Nov-14 23:23N 28°07' W 015°25'0 0.0
2017-Nov-14 22:57N 28°07' W 015°25'0 0.6
2017-Nov-14 22:30N 28°07' W 015°25'2 3.1
2017-Nov-14 21:57N 28°09' W 015°25'0 0.0
2017-Nov-14 21:27N 28°09' W 015°25'0 0.0
2017-Nov-14 20:57N 28°09' W 015°25'1 1.5
2017-Nov-14 20:30N 28°08' W 015°25'4 7.5
2017-Nov-14 19:59N 28°05' W 015°23'1 1.1
2017-Nov-14 19:28N 28°05' W 015°23'3 5.4
2017-Nov-14 18:57N 28°08' W 015°25'1 2.7
2017-Nov-14 18:30N 28°09' W 015°25'3 4.9
2017-Nov-14 17:57N 28°06' W 015°24'1 1.9
2017-Nov-14 17:24N 28°05' W 015°24'2 4.7
2017-Nov-14 16:57N 28°07' W 015°25'1 1.2
2017-Nov-14 16:26N 28°07' W 015°25'2 4.3
2017-Nov-14 15:55N 28°09' W 015°23'1 1.6
2017-Nov-14 15:30N 28°08' W 015°23'1 1.9
2017-Nov-14 15:00N 28°08' W 015°22'0 0.6
2017-Nov-14 14:29N 28°08' W 015°21'2 3.6
2017-Nov-14 13:58N 28°09' W 015°23'2 3.4
2017-Nov-14 13:27N 28°09' W 015°25'0 0.2
2017-Nov-14 12:50N 28°09' W 015°25'0 0.0
2017-Nov-14 12:23N 28°09' W 015°25'0 0.0
2017-Nov-14 11:56N 28°09' W 015°25'0 0.0
2017-Nov-14 11:26N 28°09' W 015°25'0 0.0
2017-Nov-14 10:56N 28°09' W 015°25'0 0.0
2017-Nov-14 10:26N 28°09' W 015°25'0 0.0
2017-Nov-14 09:56N 28°09' W 015°25'0 0.0
2017-Nov-14 09:29N 28°09' W 015°25'0 0.0
2017-Nov-14 08:59N 28°09' W 015°25'0 0.5
2017-Nov-14 08:26N 28°09' W 015°25'0 0.6
2017-Nov-14 08:00N 28°09' W 015°25'2 4.3
2017-Nov-14 07:30N 28°07' W 015°25'2 4.1
2017-Nov-14 06:59N 28°09' W 015°25'2 3.4
2017-Nov-14 06:25N 28°07' W 015°24'  
Track history (hours):
 
Tides and Currents Weather Stations Pressure Air Temp Water Temp Dewpoint Dewpoint Depression Visibility Wind Speed Wind Dir Waves Ship Positions

Itara

Last reported at 2017-Nov-24 04:45 UTC. Time now 2017-Nov-24 05:43 UTC.
Position N 28°09' W 015°25'.

Length 18 m.

Type: Port tender. MMSI: 224016190.

Date/timePositionNaut miles runAvg speedWind from/ knotsBaromVisibWave heightAir tempDewpointWater temp
2017-Nov-24 04:45N 28°09' W 015°25'1 5.5
2017-Nov-24 04:30N 28°08' W 015°25'4 7.6
2017-Nov-24 04:00N 28°08' W 015°20'1 1.6
2017-Nov-24 03:30N 28°07' W 015°20'3 6.9
2017-Nov-24 03:00N 28°06' W 015°23'0 0.7
2017-Nov-24 02:30N 28°06' W 015°23'3 6.5
2017-Nov-24 02:00N 28°09' W 015°25'0 0.4
2017-Nov-24 01:29N 28°09' W 015°25'0 0.0
2017-Nov-24 00:59N 28°09' W 015°25'0 0.0
2017-Nov-24 00:29N 28°09' W 015°25'0 0.0
2017-Nov-23 23:59N 28°09' W 015°25'0 0.0
2017-Nov-23 23:29N 28°09' W 015°25'3 5.3
2017-Nov-23 22:59N 28°07' W 015°24'1 1.7
2017-Nov-23 22:30N 28°07' W 015°24'1 2.3
2017-Nov-23 21:58N 28°08' W 015°24'3 5.4
2017-Nov-23 21:26N 28°06' W 015°23'2 4.1
2017-Nov-23 20:56N 28°07' W 015°24'2 3.1
2017-Nov-23 20:26N 28°09' W 015°23'2 3.3
2017-Nov-23 19:57N 28°07' W 015°24'2 5.1
2017-Nov-23 19:30N 28°05' W 015°23'3 5.3
2017-Nov-23 19:00N 28°08' W 015°25'1 2.4
2017-Nov-23 18:28N 28°09' W 015°25'0 0.0
2017-Nov-23 17:58N 28°09' W 015°25'4 7.8
2017-Nov-23 17:28N 28°05' W 015°23'1 3.2
2017-Nov-23 17:00N 28°04' W 015°22'2 3.2
2017-Nov-23 16:26N 28°06' W 015°23'4 7.1
2017-Nov-23 15:55N 28°08' W 015°20'2 4.0
2017-Nov-23 15:25N 28°08' W 015°22'3 7.2
2017-Nov-23 15:00N 28°08' W 015°25'1 1.2
2017-Nov-23 14:10N 28°09' W 015°25'1 3.7
2017-Nov-23 13:58N 28°08' W 015°25'3 4.1
2017-Nov-23 13:20N 28°06' W 015°24'0 0.1
2017-Nov-23 13:01N 28°06' W 015°24'2 3.0
2017-Nov-23 12:27N 28°07' W 015°24'2 4.4
2017-Nov-23 12:00N 28°05' W 015°24'4 7.3
2017-Nov-23 11:29N 28°09' W 015°25'1 2.3
2017-Nov-23 10:55N 28°08' W 015°25'0 0.1
2017-Nov-23 10:30N 28°08' W 015°25'0 0.8
2017-Nov-23 09:59N 28°07' W 015°25'4 7.5
2017-Nov-23 09:29N 28°04' W 015°22'2 3.9
2017-Nov-23 08:58N 28°06' W 015°24'2 4.2
2017-Nov-23 08:27N 28°08' W 015°25'1 2.6
2017-Nov-23 07:57N 28°09' W 015°25'0 0.2
2017-Nov-23 07:26N 28°09' W 015°25'1 2.3
2017-Nov-23 06:56N 28°08' W 015°24'1 1.9
2017-Nov-23 06:30N 28°08' W 015°24'4 7.4
2017-Nov-23 05:59N 28°04' W 015°22'3 5.9
2017-Nov-23 05:29N 28°07' W 015°24'  
2017-Nov-19 20:55N 28°09' W 015°25'2 4.6
2017-Nov-19 20:28N 28°07' W 015°24'1 1.5
2017-Nov-19 19:47N 28°06' W 015°24'0 0.0
2017-Nov-19 19:30N 28°06' W 015°24'0 0.0
2017-Nov-19 18:53N 28°06' W 015°24'0 0.1
2017-Nov-19 18:30N 28°06' W 015°24'0 0.0
2017-Nov-19 18:00N 28°06' W 015°24'1 2.3
2017-Nov-19 17:30N 28°07' W 015°25'2 3.0
2017-Nov-19 16:51N 28°09' W 015°25'0 0.0
2017-Nov-19 16:21N 28°09' W 015°25'2 6.8
2017-Nov-19 16:00N 28°07' W 015°24'0 0.8
2017-Nov-19 15:28N 28°06' W 015°24'3 6.1
2017-Nov-19 14:57N 28°08' W 015°22'3 4.8
2017-Nov-19 14:16N 28°11' W 015°19'2 4.7
2017-Nov-19 13:56N 28°10' W 015°21'4 7.5
2017-Nov-19 13:25N 28°07' W 015°24'2 4.1
2017-Nov-19 12:56N 28°09' W 015°25'0 0.0
2017-Nov-19 12:23N 28°09' W 015°25'0 0.0
2017-Nov-19 11:56N 28°09' W 015°25'0 0.0
2017-Nov-18 19:29N 28°09' W 015°25'1 2.4
2017-Nov-18 19:00N 28°09' W 015°24'1 2.6
2017-Nov-18 18:30N 28°08' W 015°25'1 2.3
2017-Nov-18 18:00N 28°09' W 015°25'0 0.0
2017-Nov-18 17:30N 28°09' W 015°25'0 0.0
2017-Nov-18 17:00N 28°09' W 015°25'3 5.2
2017-Nov-18 16:26N 28°08' W 015°22'1 1.1
2017-Nov-18 15:55N 28°08' W 015°22'3 6.4
2017-Nov-18 15:25N 28°08' W 015°25'0 0.6
2017-Nov-18 14:46N 28°09' W 015°25'0 0.0
2017-Nov-18 14:28N 28°09' W 015°25'0 0.0
2017-Nov-18 13:58N 28°09' W 015°25'0 0.0
2017-Nov-18 13:19N 28°09' W 015°25'0 0.0
2017-Nov-18 12:58N 28°09' W 015°25'3 5.1
2017-Nov-18 12:26N 28°06' W 015°24'1 0.9
2017-Nov-18 11:51N 28°06' W 015°24'2 4.3
2017-Nov-18 11:25N 28°08' W 015°24'0 0.4
2017-Nov-18 10:57N 28°08' W 015°24'0 0.5
2017-Nov-18 10:30N 28°07' W 015°24'1 2.5
2017-Nov-18 10:00N 28°08' W 015°24'1 2.6
2017-Nov-18 09:30N 28°08' W 015°25'1 1.9
2017-Nov-18 09:00N 28°08' W 015°24'1 1.3
2017-Nov-18 08:27N 28°09' W 015°24'1 1.8
2017-Nov-18 07:57N 28°08' W 015°24'2 0.1
2017-Nov-17 07:51N 28°09' W 015°25'1 2.3
2017-Nov-17 07:26N 28°08' W 015°25'1 2.3
2017-Nov-17 07:00N 28°09' W 015°25'4 8.3
2017-Nov-17 06:30N 28°05' W 015°23'1 1.3
2017-Nov-17 06:00N 28°06' W 015°24'4 6.7
2017-Nov-17 05:28N 28°09' W 015°25'0 0.0
2017-Nov-16 23:18N 28°09' W 015°25'0 0.0
2017-Nov-16 22:51N 28°09' W 015°25'0 0.0
2017-Nov-16 22:21N 28°09' W 015°25'1 3.9
2017-Nov-16 21:59N 28°07' W 015°25'2 4.7
2017-Nov-16 21:28N 28°07' W 015°22'1 1.5
2017-Nov-16 20:59N 28°08' W 015°22'3 5.9
2017-Nov-16 20:30N 28°08' W 015°25'1 1.2
2017-Nov-16 19:41N 28°09' W 015°25'1 4.3
2017-Nov-16 19:27N 28°08' W 015°25'0 0.5
2017-Nov-16 18:57N 28°08' W 015°25'1 1.0
2017-Nov-16 18:15N 28°09' W 015°25'0 1.3
2017-Nov-16 18:00N 28°08' W 015°25'4 7.1
2017-Nov-16 17:30N 28°05' W 015°24'2 3.6
2017-Nov-16 16:59N 28°04' W 015°22'3 5.5
2017-Nov-16 16:29N 28°06' W 015°24'1 2.4
2017-Nov-16 15:55N 28°07' W 015°25'0 0.2
2017-Nov-16 15:24N 28°07' W 015°25'0 0.3
2017-Nov-16 15:00N 28°08' W 015°25'1 2.0
2017-Nov-16 14:30N 28°08' W 015°25'3 5.6
2017-Nov-16 14:00N 28°06' W 015°24'0 0.5
2017-Nov-16 13:26N 28°06' W 015°24'3 4.9
2017-Nov-16 12:51N 28°09' W 015°25'0 0.0
2017-Nov-16 12:21N 28°09' W 015°25'0 0.0
2017-Nov-16 11:51N 28°09' W 015°25'0 0.0
2017-Nov-16 11:30N 28°09' W 015°25'0 0.0
2017-Nov-16 11:00N 28°09' W 015°25'0 0.5
2017-Nov-16 10:30N 28°09' W 015°25'4 7.2
2017-Nov-16 10:00N 28°05' W 015°24'4 7.5
2017-Nov-16 09:30N 28°09' W 015°25'0 0.2
2017-Nov-16 09:00N 28°09' W 015°25'0 0.0
2017-Nov-16 08:30N 28°09' W 015°25'0 0.0
2017-Nov-16 08:00N 28°09' W 015°25'0 0.0
2017-Nov-16 07:30N 28°09' W 015°25'0 0.0
2017-Nov-16 07:00N 28°09' W 015°25'4 8.1
2017-Nov-16 06:30N 28°05' W 015°23'1 1.3
2017-Nov-16 06:00N 28°05' W 015°23'4 8.1
2017-Nov-16 05:30N 28°08' W 015°25'1 0.1
2017-Nov-15 21:41N 28°09' W 015°25'1 4.4
2017-Nov-15 21:27N 28°08' W 015°25'4 8.3
2017-Nov-15 20:56N 28°04' W 015°23'2 4.1
2017-Nov-15 20:30N 28°05' W 015°24'4 7.1
2017-Nov-15 20:00N 28°08' W 015°25'0 0.6
2017-Nov-15 19:19N 28°09' W 015°25'0 1.2
2017-Nov-15 18:56N 28°08' W 015°25'3 7.3
2017-Nov-15 18:28N 28°05' W 015°24'2 3.7
2017-Nov-15 18:00N 28°04' W 015°22'4 7.6
2017-Nov-15 17:30N 28°07' W 015°25'2 3.0
2017-Nov-15 16:55N 28°09' W 015°25'0 0.0
2017-Nov-15 16:26N 28°09' W 015°25'0 0.0
2017-Nov-15 15:55N 28°09' W 015°25'0 0.0
2017-Nov-15 15:25N 28°09' W 015°25'0 0.0
2017-Nov-15 14:56N 28°09' W 015°25'0 0.0
2017-Nov-15 14:29N 28°09' W 015°25'0 0.0
2017-Nov-15 13:59N 28°09' W 015°25'0 0.0
2017-Nov-15 13:29N 28°09' W 015°25'0 0.0
2017-Nov-15 12:59N 28°09' W 015°25'2 5.2
2017-Nov-15 12:30N 28°06' W 015°24'0 0.9
2017-Nov-15 12:00N 28°06' W 015°24'3 5.4
2017-Nov-15 11:28N 28°09' W 015°25'0 0.0
2017-Nov-15 10:58N 28°09' W 015°25'3 5.9
2017-Nov-15 10:31N 28°06' W 015°24'1 2.6
2017-Nov-15 10:00N 28°05' W 015°24'4 7.1
2017-Nov-15 09:30N 28°08' W 015°25'0 0.4
2017-Nov-15 08:57N 28°08' W 015°25'4 7.2
2017-Nov-15 08:26N 28°05' W 015°23'1 2.2
2017-Nov-15 08:00N 28°04' W 015°23'3 6.3
2017-Nov-15 07:30N 28°07' W 015°25'2 2.8
2017-Nov-15 06:49N 28°09' W 015°25'3 8.1
2017-Nov-15 06:29N 28°06' W 015°24'3 6.0
2017-Nov-15 06:00N 28°04' W 015°22'4 8.4
2017-Nov-15 05:30N 28°07' W 015°25'1 0.7
2017-Nov-15 03:26N 28°09' W 015°25'2 4.8
2017-Nov-15 02:58N 28°07' W 015°24'1 1.3
2017-Nov-15 02:25N 28°07' W 015°25'2 2.8
2017-Nov-15 01:51N 28°09' W 015°25'0 0.0
2017-Nov-15 01:21N 28°09' W 015°25'0 0.0
2017-Nov-15 00:54N 28°09' W 015°25'1 3.6
2017-Nov-15 00:30N 28°07' W 015°25'0 0.1
2017-Nov-14 23:58N 28°07' W 015°25'0 0.0
2017-Nov-14 23:23N 28°07' W 015°25'0 0.0
2017-Nov-14 22:57N 28°07' W 015°25'0 0.6
2017-Nov-14 22:30N 28°07' W 015°25'2 3.1
2017-Nov-14 21:57N 28°09' W 015°25'0 0.0
2017-Nov-14 21:27N 28°09' W 015°25'0 0.0
2017-Nov-14 20:57N 28°09' W 015°25'1 1.5
2017-Nov-14 20:30N 28°08' W 015°25'4 7.5
2017-Nov-14 19:59N 28°05' W 015°23'1 1.1
2017-Nov-14 19:28N 28°05' W 015°23'3 5.4
2017-Nov-14 18:57N 28°08' W 015°25'1 2.7
2017-Nov-14 18:30N 28°09' W 015°25'3 4.9
2017-Nov-14 17:57N 28°06' W 015°24'1 1.9
2017-Nov-14 17:24N 28°05' W 015°24'2 4.7
2017-Nov-14 16:57N 28°07' W 015°25'1 1.2
2017-Nov-14 16:26N 28°07' W 015°25'2 4.3
2017-Nov-14 15:55N 28°09' W 015°23'1 1.6
2017-Nov-14 15:30N 28°08' W 015°23'1 1.9
2017-Nov-14 15:00N 28°08' W 015°22'0 0.6
2017-Nov-14 14:29N 28°08' W 015°21'2 3.6
2017-Nov-14 13:58N 28°09' W 015°23'2 3.4
2017-Nov-14 13:27N 28°09' W 015°25'0 0.2
2017-Nov-14 12:50N 28°09' W 015°25'0 0.0
2017-Nov-14 12:23N 28°09' W 015°25'0 0.0
2017-Nov-14 11:56N 28°09' W 015°25'0 0.0
2017-Nov-14 11:26N 28°09' W 015°25'0 0.0
2017-Nov-14 10:56N 28°09' W 015°25'0 0.0
2017-Nov-14 10:26N 28°09' W 015°25'0 0.0
2017-Nov-14 09:56N 28°09' W 015°25'0 0.0
2017-Nov-14 09:29N 28°09' W 015°25'0 0.0
2017-Nov-14 08:59N 28°09' W 015°25'0 0.5
2017-Nov-14 08:26N 28°09' W 015°25'0 0.6
2017-Nov-14 08:00N 28°09' W 015°25'2 4.3
2017-Nov-14 07:30N 28°07' W 015°25'2 4.1
2017-Nov-14 06:59N 28°09' W 015°25'2 3.4
2017-Nov-14 06:25N 28°07' W 015°24'  

Dump ship's entire track history